sensor_id;sensor_type;location;lat;lon;timestamp;pressure;altitude;pressure_sealevel;temperature;humidity
68634;BME280;55625;47.072;22.192;2022-07-23T00:02:06;99665.78;;;22.43;44.02
68634;BME280;55625;47.072;22.192;2022-07-23T00:04:33;99659.28;;;22.37;43.86
68634;BME280;55625;47.072;22.192;2022-07-23T00:06:59;99666.38;;;22.30;43.77
68634;BME280;55625;47.072;22.192;2022-07-23T00:09:25;99659.09;;;22.24;43.57
68634;BME280;55625;47.072;22.192;2022-07-23T00:11:51;99665.50;;;22.11;43.66
68634;BME280;55625;47.072;22.192;2022-07-23T00:14:17;99662.38;;;22.04;44.32
68634;BME280;55625;47.072;22.192;2022-07-23T00:16:43;99669.72;;;21.99;44.18
68634;BME280;55625;47.072;22.192;2022-07-23T00:19:09;99671.28;;;22.00;44.24
68634;BME280;55625;47.072;22.192;2022-07-23T00:21:35;99665.50;;;22.00;44.93
68634;BME280;55625;47.072;22.192;2022-07-23T00:24:01;99658.94;;;21.99;43.82
68634;BME280;55625;47.072;22.192;2022-07-23T00:26:27;99659.72;;;22.00;43.72
68634;BME280;55625;47.072;22.192;2022-07-23T00:28:52;99669.47;;;21.97;43.79
68634;BME280;55625;47.072;22.192;2022-07-23T00:31:18;99676.63;;;21.90;44.56
68634;BME280;55625;47.072;22.192;2022-07-23T00:33:44;99670.59;;;21.88;44.97
68634;BME280;55625;47.072;22.192;2022-07-23T00:36:10;99665.31;;;21.92;45.71
68634;BME280;55625;47.072;22.192;2022-07-23T00:38:36;99665.81;;;21.96;46.44
68634;BME280;55625;47.072;22.192;2022-07-23T00:41:02;99672.16;;;21.89;46.67
68634;BME280;55625;47.072;22.192;2022-07-23T00:43:28;99670.00;;;21.95;46.05
68634;BME280;55625;47.072;22.192;2022-07-23T00:45:54;99662.16;;;21.90;46.32
68634;BME280;55625;47.072;22.192;2022-07-23T00:48:20;99663.72;;;21.91;45.32
68634;BME280;55625;47.072;22.192;2022-07-23T00:50:45;99659.28;;;21.90;45.68
68634;BME280;55625;47.072;22.192;2022-07-23T00:53:12;99660.88;;;21.86;45.79
68634;BME280;55625;47.072;22.192;2022-07-23T00:55:38;99661.94;;;21.83;45.33
68634;BME280;55625;47.072;22.192;2022-07-23T00:58:05;99671.16;;;21.81;45.21
68634;BME280;55625;47.072;22.192;2022-07-23T01:00:31;99664.59;;;21.81;44.51
68634;BME280;55625;47.072;22.192;2022-07-23T01:02:57;99659.06;;;21.83;44.41
68634;BME280;55625;47.072;22.192;2022-07-23T01:05:23;99662.47;;;21.81;44.52
68634;BME280;55625;47.072;22.192;2022-07-23T01:07:51;99657.25;;;21.80;44.94
68634;BME280;55625;47.072;22.192;2022-07-23T01:10:18;99658.56;;;21.79;44.89
68634;BME280;55625;47.072;22.192;2022-07-23T01:13:07;99655.41;;;21.77;45.38
68634;BME280;55625;47.072;22.192;2022-07-23T01:15:35;99659.38;;;21.74;45.68
68634;BME280;55625;47.072;22.192;2022-07-23T01:18:03;99660.69;;;21.67;45.69
68634;BME280;55625;47.072;22.192;2022-07-23T01:20:30;99663.34;;;21.65;45.63
68634;BME280;55625;47.072;22.192;2022-07-23T01:22:57;99659.66;;;21.64;45.25
68634;BME280;55625;47.072;22.192;2022-07-23T01:25:23;99653.66;;;21.57;45.55
68634;BME280;55625;47.072;22.192;2022-07-23T01:27:50;99656.53;;;21.62;45.19
68634;BME280;55625;47.072;22.192;2022-07-23T01:30:16;99643.94;;;21.60;45.46
68634;BME280;55625;47.072;22.192;2022-07-23T01:32:42;99644.72;;;21.60;45.65
68634;BME280;55625;47.072;22.192;2022-07-23T01:35:09;99651.56;;;21.57;45.41
68634;BME280;55625;47.072;22.192;2022-07-23T01:37:35;99651.03;;;21.59;45.78
68634;BME280;55625;47.072;22.192;2022-07-23T01:40:02;99658.69;;;21.51;46.08
68634;BME280;55625;47.072;22.192;2022-07-23T01:42:28;99657.66;;;21.48;46.45
68634;BME280;55625;47.072;22.192;2022-07-23T01:44:54;99661.59;;;21.45;46.63
68634;BME280;55625;47.072;22.192;2022-07-23T01:47:20;99653.19;;;21.42;47.11
68634;BME280;55625;47.072;22.192;2022-07-23T01:49:46;99661.84;;;21.42;47.13
68634;BME280;55625;47.072;22.192;2022-07-23T01:52:12;99660.81;;;21.39;47.17
68634;BME280;55625;47.072;22.192;2022-07-23T01:54:39;99661.09;;;21.35;46.97
68634;BME280;55625;47.072;22.192;2022-07-23T01:57:06;99663.19;;;21.35;47.46
68634;BME280;55625;47.072;22.192;2022-07-23T01:59:32;99655.63;;;21.26;47.34
68634;BME280;55625;47.072;22.192;2022-07-23T02:01:58;99657.47;;;21.18;47.70
68634;BME280;55625;47.072;22.192;2022-07-23T02:04:25;99648.81;;;21.07;47.59
68634;BME280;55625;47.072;22.192;2022-07-23T02:06:52;99655.13;;;21.00;47.65
68634;BME280;55625;47.072;22.192;2022-07-23T02:09:18;99649.38;;;20.94;47.43
68634;BME280;55625;47.072;22.192;2022-07-23T02:11:44;99654.38;;;20.88;47.59
68634;BME280;55625;47.072;22.192;2022-07-23T02:14:10;99654.09;;;20.81;47.80
68634;BME280;55625;47.072;22.192;2022-07-23T02:16:36;99653.06;;;20.84;48.02
68634;BME280;55625;47.072;22.192;2022-07-23T02:19:03;99663.56;;;20.75;48.60
68634;BME280;55625;47.072;22.192;2022-07-23T02:21:29;99655.97;;;20.72;48.29
68634;BME280;55625;47.072;22.192;2022-07-23T02:23:55;99660.41;;;20.73;48.07
68634;BME280;55625;47.072;22.192;2022-07-23T02:26:21;99655.16;;;20.77;47.89
68634;BME280;55625;47.072;22.192;2022-07-23T02:28:47;99655.16;;;20.77;47.67
68634;BME280;55625;47.072;22.192;2022-07-23T02:31:13;99658.06;;;20.72;47.84
68634;BME280;55625;47.072;22.192;2022-07-23T02:33:38;99659.91;;;20.69;47.96
68634;BME280;55625;47.072;22.192;2022-07-23T02:36:05;99658.06;;;20.72;48.08
68634;BME280;55625;47.072;22.192;2022-07-23T02:38:31;99655.97;;;20.67;48.23
68634;BME280;55625;47.072;22.192;2022-07-23T02:40:56;99659.91;;;20.69;48.21
68634;BME280;55625;47.072;22.192;2022-07-23T02:43:22;99652.03;;;20.64;48.17
68634;BME280;55625;47.072;22.192;2022-07-23T02:45:48;99657.81;;;20.64;48.25
68634;BME280;55625;47.072;22.192;2022-07-23T02:48:14;99646.78;;;20.68;48.41
68634;BME280;55625;47.072;22.192;2022-07-23T02:50:40;99653.34;;;20.74;48.07
68634;BME280;55625;47.072;22.192;2022-07-23T02:53:06;99644.69;;;20.69;48.44
68634;BME280;55625;47.072;22.192;2022-07-23T02:55:32;99646.00;;;20.68;48.50
68634;BME280;55625;47.072;22.192;2022-07-23T02:57:57;99655.69;;;20.70;48.19
68634;BME280;55625;47.072;22.192;2022-07-23T03:00:23;99647.31;;;20.72;48.08
68634;BME280;55625;47.072;22.192;2022-07-23T03:02:49;99656.50;;;20.71;48.33
68634;BME280;55625;47.072;22.192;2022-07-23T03:05:15;99654.38;;;20.71;48.31
68634;BME280;55625;47.072;22.192;2022-07-23T03:07:41;99650.72;;;20.65;48.81
68634;BME280;55625;47.072;22.192;2022-07-23T03:10:07;99660.69;;;20.64;49.01
68634;BME280;55625;47.072;22.192;2022-07-23T03:12:33;99654.13;;;20.64;48.94
68634;BME280;55625;47.072;22.192;2022-07-23T03:14:59;99654.91;;;20.64;48.94
68634;BME280;55625;47.072;22.192;2022-07-23T03:17:25;99658.59;;;20.65;48.84
68634;BME280;55625;47.072;22.192;2022-07-23T03:19:51;99657.53;;;20.73;48.53
68634;BME280;55625;47.072;22.192;2022-07-23T03:22:16;99655.97;;;20.67;48.79
68634;BME280;55625;47.072;22.192;2022-07-23T03:24:42;99668.81;;;20.66;48.38
68634;BME280;55625;47.072;22.192;2022-07-23T03:27:22;99670.38;;;20.72;48.14
68634;BME280;55625;47.072;22.192;2022-07-23T03:29:50;99674.06;;;20.67;48.38
68634;BME280;55625;47.072;22.192;2022-07-23T03:32:16;99669.34;;;20.64;48.28
68634;BME280;55625;47.072;22.192;2022-07-23T03:34:42;99673.78;;;20.76;48.08
68634;BME280;55625;47.072;22.192;2022-07-23T03:37:08;99675.63;;;20.80;47.88
68634;BME280;55625;47.072;22.192;2022-07-23T03:39:34;99678.50;;;20.68;48.27
68634;BME280;55625;47.072;22.192;2022-07-23T03:42:00;99676.69;;;20.71;48.02
68634;BME280;55625;47.072;22.192;2022-07-23T03:44:27;99680.59;;;20.73;48.12
68634;BME280;55625;47.072;22.192;2022-07-23T03:46:53;99681.38;;;20.74;48.15
68634;BME280;55625;47.072;22.192;2022-07-23T03:49:19;99690.81;;;20.74;47.99
68634;BME280;55625;47.072;22.192;2022-07-23T03:51:45;99681.66;;;20.76;48.35
68634;BME280;55625;47.072;22.192;2022-07-23T03:54:11;99678.25;;;20.77;47.98
68634;BME280;55625;47.072;22.192;2022-07-23T03:56:37;99679.56;;;20.88;47.58
68634;BME280;55625;47.072;22.192;2022-07-23T03:59:03;99693.44;;;20.95;47.99
68634;BME280;55625;47.072;22.192;2022-07-23T04:01:29;99685.53;;;21.06;46.99
68634;BME280;55625;47.072;22.192;2022-07-23T04:03:55;99684.22;;;21.19;47.02
68634;BME280;55625;47.072;22.192;2022-07-23T04:06:21;99675.53;;;21.35;46.67
68634;BME280;55625;47.072;22.192;2022-07-23T04:08:47;99678.16;;;21.33;47.06
68634;BME280;55625;47.072;22.192;2022-07-23T04:11:13;99675.25;;;21.39;47.45
68634;BME280;55625;47.072;22.192;2022-07-23T04:13:39;99678.66;;;21.49;47.22
68634;BME280;55625;47.072;22.192;2022-07-23T04:16:05;99671.31;;;21.48;46.79
68634;BME280;55625;47.072;22.192;2022-07-23T04:18:32;99678.09;;;21.56;46.74
68634;BME280;55625;47.072;22.192;2022-07-23T04:20:57;99676.19;;;21.69;46.61
68634;BME280;55625;47.072;22.192;2022-07-23T04:23:23;99671.19;;;21.70;46.44
68634;BME280;55625;47.072;22.192;2022-07-23T04:25:49;99680.81;;;21.89;45.99
68634;BME280;55625;47.072;22.192;2022-07-23T04:28:15;99682.63;;;21.92;46.36
68634;BME280;55625;47.072;22.192;2022-07-23T04:30:41;99682.59;;;22.04;46.02
68634;BME280;55625;47.072;22.192;2022-07-23T04:33:07;99688.03;;;22.18;45.94
68634;BME280;55625;47.072;22.192;2022-07-23T04:35:34;99682.41;;;22.31;46.10
68634;BME280;55625;47.072;22.192;2022-07-23T04:38:00;99673.97;;;22.39;45.12
68634;BME280;55625;47.072;22.192;2022-07-23T04:40:27;99685.16;;;22.54;44.52
68634;BME280;55625;47.072;22.192;2022-07-23T04:42:53;99689.25;;;22.64;44.82
68634;BME280;55625;47.072;22.192;2022-07-23T04:45:19;99686.28;;;22.81;45.28
68634;BME280;55625;47.072;22.192;2022-07-23T04:47:45;99681.41;;;22.95;44.29
68634;BME280;55625;47.072;22.192;2022-07-23T04:50:11;99678.66;;;23.08;43.63
68634;BME280;55625;47.072;22.192;2022-07-23T04:52:37;99676.88;;;23.23;42.82
68634;BME280;55625;47.072;22.192;2022-07-23T04:55:03;99678.81;;;23.40;42.46
68634;BME280;55625;47.072;22.192;2022-07-23T04:57:30;99681.59;;;23.51;42.77
68634;BME280;55625;47.072;22.192;2022-07-23T04:59:56;99681.28;;;23.54;42.48
68634;BME280;55625;47.072;22.192;2022-07-23T05:02:21;99677.66;;;23.73;41.35
68634;BME280;55625;47.072;22.192;2022-07-23T05:04:47;99669.13;;;23.80;41.14
68634;BME280;55625;47.072;22.192;2022-07-23T05:07:13;99674.59;;;23.84;41.53
68634;BME280;55625;47.072;22.192;2022-07-23T05:09:39;99663.66;;;23.96;41.12
68634;BME280;55625;47.072;22.192;2022-07-23T05:12:05;99667.31;;;24.15;41.49
68634;BME280;55625;47.072;22.192;2022-07-23T05:14:31;99667.16;;;24.26;41.08
68634;BME280;55625;47.072;22.192;2022-07-23T05:16:57;99667.56;;;24.36;41.27
68634;BME280;55625;47.072;22.192;2022-07-23T05:19:23;99660.31;;;24.42;41.51
68634;BME280;55625;47.072;22.192;2022-07-23T05:21:48;99668.22;;;24.61;40.89
68634;BME280;55625;47.072;22.192;2022-07-23T05:24:14;99662.53;;;24.68;40.88
68634;BME280;55625;47.072;22.192;2022-07-23T05:26:40;99663.94;;;24.81;40.89
68634;BME280;55625;47.072;22.192;2022-07-23T05:29:06;99660.72;;;24.97;40.91
68634;BME280;55625;47.072;22.192;2022-07-23T05:31:32;99666.13;;;25.20;40.47
68634;BME280;55625;47.072;22.192;2022-07-23T05:33:58;99656.97;;;25.29;39.98
68634;BME280;55625;47.072;22.192;2022-07-23T05:36:24;99665.38;;;25.46;40.23
68634;BME280;55625;47.072;22.192;2022-07-23T05:38:50;99671.94;;;25.59;39.89
68634;BME280;55625;47.072;22.192;2022-07-23T05:41:16;99663.91;;;25.79;39.33
68634;BME280;55625;47.072;22.192;2022-07-23T05:43:42;99656.16;;;25.94;38.95
68634;BME280;55625;47.072;22.192;2022-07-23T05:46:07;99660.69;;;26.16;39.10
68634;BME280;55625;47.072;22.192;2022-07-23T05:48:33;99657.94;;;26.31;38.20
68634;BME280;55625;47.072;22.192;2022-07-23T05:50:59;99663.59;;;26.50;38.26
68634;BME280;55625;47.072;22.192;2022-07-23T05:53:26;99668.09;;;26.72;37.68
68634;BME280;55625;47.072;22.192;2022-07-23T05:55:52;99663.94;;;26.88;36.46
68634;BME280;55625;47.072;22.192;2022-07-23T05:58:18;99667.72;;;26.97;36.12
68634;BME280;55625;47.072;22.192;2022-07-23T06:00:44;99655.59;;;27.06;35.79
68634;BME280;55625;47.072;22.192;2022-07-23T06:03:10;99660.59;;;27.26;36.10
68634;BME280;55625;47.072;22.192;2022-07-23T06:05:36;99661.91;;;27.53;35.07
68634;BME280;55625;47.072;22.192;2022-07-23T06:08:02;99663.81;;;27.72;35.21
68634;BME280;55625;47.072;22.192;2022-07-23T06:10:28;99655.34;;;27.89;34.89
68634;BME280;55625;47.072;22.192;2022-07-23T06:12:54;99668.84;;;28.15;35.29
68634;BME280;55625;47.072;22.192;2022-07-23T06:15:19;99653.94;;;28.34;34.53
68634;BME280;55625;47.072;22.192;2022-07-23T06:17:45;99662.34;;;28.45;34.16
68634;BME280;55625;47.072;22.192;2022-07-23T06:20:11;99653.63;;;28.60;34.80
68634;BME280;55625;47.072;22.192;2022-07-23T06:22:37;99660.28;;;28.84;33.77
68634;BME280;55625;47.072;22.192;2022-07-23T06:25:04;99661.47;;;29.11;33.56
68634;BME280;55625;47.072;22.192;2022-07-23T06:27:30;99654.97;;;29.35;32.89
68634;BME280;55625;47.072;22.192;2022-07-23T06:29:56;99661.22;;;29.55;32.04
68634;BME280;55625;47.072;22.192;2022-07-23T06:32:22;99655.53;;;29.72;30.91
68634;BME280;55625;47.072;22.192;2022-07-23T06:34:48;99658.75;;;29.91;31.53
68634;BME280;55625;47.072;22.192;2022-07-23T06:37:14;99657.53;;;30.10;31.99
68634;BME280;55625;47.072;22.192;2022-07-23T06:39:40;99658.81;;;30.24;30.53
68634;BME280;55625;47.072;22.192;2022-07-23T06:42:06;99664.44;;;30.37;29.80
68634;BME280;55625;47.072;22.192;2022-07-23T06:44:31;99660.03;;;30.53;31.44
68634;BME280;55625;47.072;22.192;2022-07-23T06:46:57;99658.75;;;30.72;29.17
68634;BME280;55625;47.072;22.192;2022-07-23T06:49:23;99672.94;;;30.83;29.57
68634;BME280;55625;47.072;22.192;2022-07-23T06:51:49;99660.31;;;30.98;29.46
68634;BME280;55625;47.072;22.192;2022-07-23T06:54:15;99656.59;;;31.22;28.51
68634;BME280;55625;47.072;22.192;2022-07-23T06:56:41;99657.56;;;31.42;28.76
68634;BME280;55625;47.072;22.192;2022-07-23T06:59:08;99659.94;;;31.78;29.91
68634;BME280;55625;47.072;22.192;2022-07-23T07:01:34;99659.56;;;32.08;28.00
68634;BME280;55625;47.072;22.192;2022-07-23T07:04:00;99669.50;;;32.30;28.20
68634;BME280;55625;47.072;22.192;2022-07-23T07:06:25;99661.75;;;32.52;28.30
68634;BME280;55625;47.072;22.192;2022-07-23T07:08:51;99658.97;;;32.81;28.65
68634;BME280;55625;47.072;22.192;2022-07-23T07:11:17;99667.16;;;33.19;27.85
68634;BME280;55625;47.072;22.192;2022-07-23T07:13:43;99667.50;;;33.33;26.57
68634;BME280;55625;47.072;22.192;2022-07-23T07:16:09;99663.69;;;33.50;26.61
68634;BME280;55625;47.072;22.192;2022-07-23T07:18:35;99663.88;;;33.71;26.41
68634;BME280;55625;47.072;22.192;2022-07-23T07:21:00;99661.59;;;33.99;25.94
68634;BME280;55625;47.072;22.192;2022-07-23T07:23:26;99666.34;;;34.23;26.00
68634;BME280;55625;47.072;22.192;2022-07-23T07:25:52;99663.84;;;34.48;25.67
68634;BME280;55625;47.072;22.192;2022-07-23T07:28:18;99660.34;;;34.71;25.72
68634;BME280;55625;47.072;22.192;2022-07-23T07:30:44;99657.81;;;34.97;25.32
68634;BME280;55625;47.072;22.192;2022-07-23T07:33:09;99656.88;;;35.25;25.27
68634;BME280;55625;47.072;22.192;2022-07-23T07:35:35;99664.22;;;35.45;24.55
68634;BME280;55625;47.072;22.192;2022-07-23T07:38:01;99659.59;;;35.64;24.62
68634;BME280;55625;47.072;22.192;2022-07-23T07:40:27;99652.59;;;35.81;23.52
68634;BME280;55625;47.072;22.192;2022-07-23T07:42:54;99649.75;;;35.92;21.79
68634;BME280;55625;47.072;22.192;2022-07-23T07:45:23;99650.88;;;35.87;22.42
68634;BME280;55625;47.072;22.192;2022-07-23T07:47:53;99649.75;;;35.92;22.17
68634;BME280;55625;47.072;22.192;2022-07-23T07:50:20;99647.88;;;36.08;22.31
68634;BME280;55625;47.072;22.192;2022-07-23T07:52:46;99653.72;;;36.18;22.29
68634;BME280;55625;47.072;22.192;2022-07-23T07:55:12;99650.22;;;36.43;22.22
68634;BME280;55625;47.072;22.192;2022-07-23T07:57:38;99643.41;;;36.52;21.03
68634;BME280;55625;47.072;22.192;2022-07-23T08:00:06;99639.44;;;36.59;21.04
68634;BME280;55625;47.072;22.192;2022-07-23T08:02:47;99637.91;;;36.70;20.92
68634;BME280;55625;47.072;22.192;2022-07-23T08:05:14;99644.13;;;36.86;20.81
68634;BME280;55625;47.072;22.192;2022-07-23T08:07:40;99642.69;;;36.98;19.80
68634;BME280;55625;47.072;22.192;2022-07-23T08:10:08;99643.47;;;37.11;20.51
68634;BME280;55625;47.072;22.192;2022-07-23T08:12:46;99641.03;;;37.19;19.62
68634;BME280;55625;47.072;22.192;2022-07-23T08:15:15;99643.34;;;37.44;19.62
68634;BME280;55625;47.072;22.192;2022-07-23T08:17:43;99631.44;;;37.67;20.30
68634;BME280;55625;47.072;22.192;2022-07-23T08:20:11;99639.34;;;38.00;18.64
68634;BME280;55625;47.072;22.192;2022-07-23T08:22:58;99634.72;;;38.22;17.59
68634;BME280;55625;47.072;22.192;2022-07-23T08:25:34;99634.44;;;38.30;18.00
68634;BME280;55625;47.072;22.192;2022-07-23T08:28:04;99631.41;;;38.41;18.05
68634;BME280;55625;47.072;22.192;2022-07-23T08:30:31;99633.69;;;38.43;16.63
68634;BME280;55625;47.072;22.192;2022-07-23T08:33:06;99628.00;;;38.47;17.96
68634;BME280;55625;47.072;22.192;2022-07-23T08:35:39;99629.47;;;38.60;17.21
68634;BME280;55625;47.072;22.192;2022-07-23T08:38:07;99618.44;;;38.48;16.47
68634;BME280;55625;47.072;22.192;2022-07-23T08:40:43;99631.50;;;38.69;18.17
68634;BME280;55625;47.072;22.192;2022-07-23T08:43:17;99623.06;;;38.91;17.23
68634;BME280;55625;47.072;22.192;2022-07-23T08:45:46;99626.16;;;38.93;17.42
68634;BME280;55625;47.072;22.192;2022-07-23T08:48:19;99623.41;;;38.97;15.97
68634;BME280;55625;47.072;22.192;2022-07-23T08:50:51;99615.38;;;38.99;16.54
68634;BME280;55625;47.072;22.192;2022-07-23T08:53:18;99618.25;;;39.11;16.20
68634;BME280;55625;47.072;22.192;2022-07-23T08:55:47;99622.78;;;39.26;16.60
68634;BME280;55625;47.072;22.192;2022-07-23T08:58:13;99617.88;;;39.46;16.61
68634;BME280;55625;47.072;22.192;2022-07-23T09:00:40;99621.88;;;39.64;16.04
68634;BME280;55625;47.072;22.192;2022-07-23T09:03:06;99611.59;;;39.81;16.92
68634;BME280;55625;47.072;22.192;2022-07-23T09:05:32;99613.41;;;40.02;16.57
68634;BME280;55625;47.072;22.192;2022-07-23T09:08:13;99617.06;;;39.87;15.77
68634;BME280;55625;47.072;22.192;2022-07-23T09:10:55;99619.97;;;39.71;16.84
68634;BME280;55625;47.072;22.192;2022-07-23T09:16:16;99602.84;;;39.99;16.84
68634;BME280;55625;47.072;22.192;2022-07-23T09:19:11;99601.13;;;40.10;16.92
68634;BME280;55625;47.072;22.192;2022-07-23T09:21:39;99596.63;;;40.38;16.96
68634;BME280;55625;47.072;22.192;2022-07-23T09:24:10;99596.28;;;40.46;15.92
68634;BME280;55625;47.072;22.192;2022-07-23T09:26:41;99587.63;;;40.68;16.22
68634;BME280;55625;47.072;22.192;2022-07-23T09:29:23;99584.28;;;40.75;15.53
68634;BME280;55625;47.072;22.192;2022-07-23T09:31:54;99589.38;;;40.88;16.43
68634;BME280;55625;47.072;22.192;2022-07-23T09:34:37;99579.00;;;40.89;15.84
68634;BME280;55625;47.072;22.192;2022-07-23T09:37:16;99581.28;;;41.07;16.11
68634;BME280;55625;47.072;22.192;2022-07-23T09:39:44;99580.31;;;41.02;15.48
68634;BME280;55625;47.072;22.192;2022-07-23T09:44:48;99584.56;;;40.97;16.31
68634;BME280;55625;47.072;22.192;2022-07-23T09:47:15;99588.78;;;40.60;15.29
68634;BME280;55625;47.072;22.192;2022-07-23T09:52:34;99581.41;;;40.77;15.06
68634;BME280;55625;47.072;22.192;2022-07-23T09:55:04;99577.09;;;40.80;15.89
68634;BME280;55625;47.072;22.192;2022-07-23T09:57:32;99579.16;;;41.09;15.53
68634;BME280;55625;47.072;22.192;2022-07-23T10:00:03;99570.59;;;41.33;15.38
68634;BME280;55625;47.072;22.192;2022-07-23T10:02:32;99568.13;;;41.12;14.75
68634;BME280;55625;47.072;22.192;2022-07-23T10:05:00;99567.34;;;41.11;13.87
68634;BME280;55625;47.072;22.192;2022-07-23T10:07:27;99560.72;;;41.13;13.87
68634;BME280;55625;47.072;22.192;2022-07-23T10:09:56;99559.97;;;40.97;14.56
68634;BME280;55625;47.072;22.192;2022-07-23T10:12:23;99552.28;;;40.91;15.20
68634;BME280;55625;47.072;22.192;2022-07-23T10:15:10;99554.34;;;41.20;14.22
68634;BME280;55625;47.072;22.192;2022-07-23T10:17:36;99548.13;;;41.14;14.31
68634;BME280;55625;47.072;22.192;2022-07-23T10:20:04;99550.84;;;41.42;14.85
68634;BME280;55625;47.072;22.192;2022-07-23T10:22:47;99541.75;;;41.55;15.34
68634;BME280;55625;47.072;22.192;2022-07-23T10:25:32;99546.69;;;41.49;13.99
68634;BME280;55625;47.072;22.192;2022-07-23T10:28:30;99542.50;;;41.56;14.11
68634;BME280;55625;47.072;22.192;2022-07-23T10:31:13;99543.94;;;41.71;14.64
68634;BME280;55625;47.072;22.192;2022-07-23T10:34:00;99545.72;;;41.78;14.54
68634;BME280;55625;47.072;22.192;2022-07-23T10:36:46;99538.38;;;41.81;13.18
68634;BME280;55625;47.072;22.192;2022-07-23T10:39:33;99524.44;;;41.68;13.33
68634;BME280;55625;47.072;22.192;2022-07-23T10:42:13;99519.69;;;41.63;13.79
68634;BME280;55625;47.072;22.192;2022-07-23T10:44:46;99527.22;;;41.81;13.40
68634;BME280;55625;47.072;22.192;2022-07-23T10:47:30;99524.72;;;41.94;12.23
68634;BME280;55625;47.072;22.192;2022-07-23T10:50:37;99524.75;;;41.76;13.13
68634;BME280;55625;47.072;22.192;2022-07-23T10:57:58;99523.53;;;41.47;13.54
68634;BME280;55625;47.072;22.192;2022-07-23T11:00:25;99519.59;;;41.61;13.54
68634;BME280;55625;47.072;22.192;2022-07-23T11:03:00;99522.28;;;41.70;12.96
68634;BME280;55625;47.072;22.192;2022-07-23T11:10:47;99515.28;;;41.99;13.56
68634;BME280;55625;47.072;22.192;2022-07-23T11:16:17;99505.34;;;41.75;13.06
68634;BME280;55625;47.072;22.192;2022-07-23T11:24:10;99494.06;;;41.55;12.82
68634;BME280;55625;47.072;22.192;2022-07-23T11:27:01;99491.56;;;40.99;12.84
68634;BME280;55625;47.072;22.192;2022-07-23T11:32:30;99489.28;;;41.48;13.65
68634;BME280;55625;47.072;22.192;2022-07-23T11:34:56;99492.88;;;41.45;12.96
68634;BME280;55625;47.072;22.192;2022-07-23T11:37:35;99478.81;;;41.30;12.88
68634;BME280;55625;47.072;22.192;2022-07-23T11:40:10;99476.41;;;40.92;12.94
68634;BME280;55625;47.072;22.192;2022-07-23T11:42:57;99478.69;;;41.10;14.14
68634;BME280;55625;47.072;22.192;2022-07-23T11:45:30;99476.69;;;41.50;13.19
68634;BME280;55625;47.072;22.192;2022-07-23T11:47:56;99475.00;;;41.45;12.46
68634;BME280;55625;47.072;22.192;2022-07-23T11:50:24;99468.09;;;41.58;12.81
68634;BME280;55625;47.072;22.192;2022-07-23T11:52:52;99470.97;;;41.56;13.12
68634;BME280;55625;47.072;22.192;2022-07-23T11:55:18;99462.22;;;41.42;12.76
68634;BME280;55625;47.072;22.192;2022-07-23T11:57:45;99465.94;;;41.25;12.31
68634;BME280;55625;47.072;22.192;2022-07-23T12:00:17;99461.22;;;41.36;13.05
68634;BME280;55625;47.072;22.192;2022-07-23T12:02:49;99455.75;;;41.48;13.35
68634;BME280;55625;47.072;22.192;2022-07-23T12:05:19;99463.16;;;41.47;13.23
68634;BME280;55625;47.072;22.192;2022-07-23T12:07:47;99465.75;;;41.21;13.28
68634;BME280;55625;47.072;22.192;2022-07-23T12:10:50;99459.28;;;41.09;12.43
68634;BME280;55625;47.072;22.192;2022-07-23T12:13:18;99446.38;;;40.86;12.72
68634;BME280;55625;47.072;22.192;2022-07-23T12:15:49;99438.22;;;40.87;13.29
68634;BME280;55625;47.072;22.192;2022-07-23T12:18:22;99447.44;;;41.11;13.94
68634;BME280;55625;47.072;22.192;2022-07-23T12:20:52;99438.50;;;41.11;12.92
68634;BME280;55625;47.072;22.192;2022-07-23T12:23:21;99440.09;;;40.96;12.81
68634;BME280;55625;47.072;22.192;2022-07-23T12:25:50;99428.81;;;40.77;13.98
68634;BME280;55625;47.072;22.192;2022-07-23T12:28:28;99433.53;;;41.00;13.18
68634;BME280;55625;47.072;22.192;2022-07-23T12:30:58;99437.06;;;41.12;12.68
68634;BME280;55625;47.072;22.192;2022-07-23T12:33:34;99434.91;;;40.97;12.71
68634;BME280;55625;47.072;22.192;2022-07-23T12:36:06;99429.09;;;40.83;12.88
68634;BME280;55625;47.072;22.192;2022-07-23T12:38:51;99419.38;;;41.16;12.72
68634;BME280;55625;47.072;22.192;2022-07-23T12:41:17;99421.13;;;40.72;13.41
68634;BME280;55625;47.072;22.192;2022-07-23T12:43:45;99420.50;;;40.57;13.42
68634;BME280;55625;47.072;22.192;2022-07-23T12:46:17;99425.44;;;40.84;13.21
68634;BME280;55625;47.072;22.192;2022-07-23T12:51:26;99412.19;;;40.87;13.07
68634;BME280;55625;47.072;22.192;2022-07-23T12:54:08;99406.81;;;40.84;13.38
68634;BME280;55625;47.072;22.192;2022-07-23T12:56:37;99408.00;;;40.94;13.09
68634;BME280;55625;47.072;22.192;2022-07-23T12:59:09;99411.66;;;40.93;13.21
68634;BME280;55625;47.072;22.192;2022-07-23T13:01:41;99408.66;;;40.75;13.41
68634;BME280;55625;47.072;22.192;2022-07-23T13:04:23;99395.75;;;40.53;12.75
68634;BME280;55625;47.072;22.192;2022-07-23T13:06:58;99401.19;;;40.58;13.67
68634;BME280;55625;47.072;22.192;2022-07-23T13:09:29;99395.50;;;40.64;13.70
68634;BME280;55625;47.072;22.192;2022-07-23T13:11:56;99397.03;;;40.65;13.65
68634;BME280;55625;47.072;22.192;2022-07-23T13:14:24;99395.75;;;40.86;12.84
68634;BME280;55625;47.072;22.192;2022-07-23T13:16:51;99388.88;;;40.66;12.27
68634;BME280;55625;47.072;22.192;2022-07-23T13:19:18;99386.56;;;40.47;13.99
68634;BME280;55625;47.072;22.192;2022-07-23T13:21:45;99385.22;;;40.68;13.16
68634;BME280;55625;47.072;22.192;2022-07-23T13:24:12;99380.69;;;40.49;13.03
68634;BME280;55625;47.072;22.192;2022-07-23T13:26:38;99373.69;;;40.76;13.25
68634;BME280;55625;47.072;22.192;2022-07-23T13:29:05;99377.13;;;40.86;13.36
68634;BME280;55625;47.072;22.192;2022-07-23T13:31:32;99380.44;;;40.60;13.51